Terminal Aerodrome Forecast
Issued by NWS

Home | Current Version | Previous Version | Text Only | Print | Product List | Glossary On
Versions: 1 2 3 4 5 6 7 8 9 10 11 12 13 14 15 16 17 18 19 20
269
FTUS44 KTSA 211739
TAFXNA
TAF
KXNA 211739Z 2118/2218 19007KT P6SM BKN250
     FM212200 16007KT P6SM VCSH OVC060
      TEMPO 2202/2206 3SM -SHRA BKN025
     FM220600 16005KT 5SM -SHRA BR OVC025
     FM220900 VRB03KT 3SM -RA BR OVC010
     FM221500 02010KT 5SM -RA BR BKN015=

USA.gov is the U.S. government's official web portal to all federal, state and local government web resources and services.